createdAt,value
2019-04-11T00:01:58.507Z,102518.95
2019-04-11T00:04:26.160Z,102517.00
2019-04-11T00:06:54.049Z,102527.81
2019-04-11T00:09:21.341Z,102524.40
2019-04-11T00:11:48.577Z,102531.45
2019-04-11T00:14:16.099Z,102527.66
2019-04-11T00:16:43.562Z,102527.19
2019-04-11T00:19:12.139Z,102527.95
2019-04-11T00:21:39.526Z,102530.30
2019-04-11T00:24:07.132Z,102528.52
2019-04-11T00:26:34.538Z,102529.28
2019-04-11T00:29:01.854Z,102532.44
2019-04-11T00:31:29.183Z,102530.22
2019-04-11T00:33:56.441Z,102530.05
2019-04-11T00:36:24.205Z,102537.61
2019-04-11T00:38:51.648Z,102534.78
2019-04-11T00:41:18.894Z,102536.47
2019-04-11T00:43:46.900Z,102536.73
2019-04-11T00:46:14.282Z,102535.38
2019-04-11T00:48:41.845Z,102541.80
2019-04-11T00:51:09.814Z,102543.64
2019-04-11T00:53:38.271Z,102540.66
2019-04-11T00:56:06.234Z,102539.47
2019-04-11T00:58:33.953Z,102544.58
2019-04-11T01:01:01.740Z,102539.37
2019-04-11T01:03:30.415Z,102532.20
2019-04-11T01:05:58.262Z,102543.13
2019-04-11T01:08:25.619Z,102542.34
2019-04-11T01:10:52.850Z,102532.05
2019-04-11T01:13:20.955Z,102538.72
2019-04-11T01:16:00.726Z,102540.92
2019-04-11T01:18:28.007Z,102550.15
2019-04-11T01:20:55.677Z,102543.51
2019-04-11T01:23:23.075Z,102535.70
2019-04-11T01:25:51.111Z,102542.63
2019-04-11T01:28:18.560Z,102544.18
2019-04-11T01:30:53.992Z,102538.41
2019-04-11T01:33:21.999Z,102541.56
2019-04-11T01:35:49.911Z,102535.95
2019-04-11T01:38:20.963Z,102540.92
2019-04-11T01:40:47.739Z,102538.06
2019-04-11T01:43:15.646Z,102542.09
2019-04-11T01:45:43.369Z,102539.72
2019-04-11T01:48:18.031Z,102546.14
2019-04-11T01:50:45.354Z,102543.94
2019-04-11T01:53:13.028Z,102538.31
2019-04-11T01:55:40.835Z,102538.41
2019-04-11T01:58:08.679Z,102544.19
2019-04-11T02:00:56.748Z,102544.70
2019-04-11T02:03:45.505Z,102556.31
2019-04-11T02:06:13.900Z,102552.40
2019-04-11T02:08:41.722Z,102552.25
2019-04-11T02:11:09.692Z,102552.00
2019-04-11T02:13:37.053Z,102556.81
2019-04-11T02:16:05.011Z,102558.09
2019-04-11T02:18:32.328Z,102560.30
2019-04-11T02:20:59.709Z,102564.48
2019-04-11T02:23:35.085Z,102557.33
2019-04-11T02:26:09.935Z,102565.53
2019-04-11T02:28:37.083Z,102565.02
2019-04-11T02:31:05.371Z,102563.48
2019-04-11T02:33:34.866Z,102567.39
2019-04-11T02:36:03.106Z,102563.98
2019-04-11T02:38:32.540Z,102567.88
2019-04-11T02:41:01.151Z,102575.20
2019-04-11T02:43:29.565Z,102571.69
2019-04-11T02:46:09.798Z,102567.64
2019-04-11T02:48:26.982Z,102567.77
2019-04-11T02:50:56.586Z,102568.66
2019-04-11T02:53:26.137Z,102570.47
2019-04-11T02:55:54.300Z,102569.83
2019-04-11T02:58:23.055Z,102573.99
2019-04-11T03:00:53.210Z,102577.90
2019-04-11T03:03:20.985Z,102573.20
2019-04-11T03:05:48.638Z,102574.61
2019-04-11T03:08:19.194Z,102571.02
2019-04-11T03:10:46.061Z,102569.06
2019-04-11T03:13:14.341Z,102569.05
2019-04-11T03:15:57.418Z,102564.50
2019-04-11T03:18:18.558Z,102576.77
2019-04-11T03:20:47.543Z,102576.75
2019-04-11T03:23:12.207Z,102572.45
2019-04-11T03:25:40.439Z,102572.20
2019-04-11T03:28:13.650Z,102569.98
2019-04-11T03:30:56.853Z,102567.23
2019-04-11T03:36:27.443Z,102564.78
2019-04-11T03:38:29.670Z,102577.52
2019-04-11T03:40:50.205Z,102567.64
2019-04-11T03:43:18.371Z,102576.61
2019-04-11T03:45:52.515Z,102582.76
2019-04-11T03:48:18.030Z,102577.81
2019-04-11T03:50:34.816Z,102579.77
2019-04-11T03:53:03.827Z,102582.62
2019-04-11T03:55:32.447Z,102586.27
2019-04-11T03:58:01.222Z,102584.43
2019-04-11T04:00:34.045Z,102587.19
2019-04-11T04:02:59.437Z,102584.31
2019-04-11T04:05:30.313Z,102592.38
2019-04-11T04:07:58.213Z,102593.70
2019-04-11T04:10:27.897Z,102595.39
2019-04-11T04:12:55.878Z,102601.76
2019-04-11T04:15:47.220Z,102596.80
2019-04-11T04:18:31.773Z,102596.13
2019-04-11T04:21:22.673Z,102600.84
2019-04-11T04:23:51.874Z,102605.44
2019-04-11T04:26:19.876Z,102603.87
2019-04-11T04:28:47.667Z,102599.54
2019-04-11T04:31:16.272Z,102609.82
2019-04-11T04:33:45.477Z,102607.50
2019-04-11T04:36:15.389Z,102609.31
2019-04-11T04:38:44.522Z,102612.98
2019-04-11T04:41:23.866Z,102614.55
2019-04-11T04:43:44.300Z,102617.94
2019-04-11T04:46:31.434Z,102616.89
2019-04-11T04:48:42.602Z,102627.07
2019-04-11T04:51:12.050Z,102624.46
2019-04-11T04:53:40.914Z,102626.78
2019-04-11T04:56:09.011Z,102629.93
2019-04-11T04:58:37.818Z,102624.08
2019-04-11T05:01:06.820Z,102629.78
2019-04-11T05:03:34.714Z,102627.83
2019-04-11T05:06:03.847Z,102629.52
2019-04-11T05:08:32.523Z,102627.67
2019-04-11T05:11:00.087Z,102630.50
2019-04-11T05:13:27.958Z,102628.28
2019-04-11T05:16:07.353Z,102622.65
2019-04-11T05:18:25.655Z,102624.67
2019-04-11T05:20:54.719Z,102629.12
2019-04-11T05:23:23.527Z,102634.20
2019-04-11T05:25:50.965Z,102633.01
2019-04-11T05:28:19.245Z,102631.66
2019-04-11T05:30:46.656Z,102631.79
2019-04-11T05:33:13.938Z,102629.44
2019-04-11T05:35:41.727Z,102626.03
2019-04-11T05:38:09.110Z,102624.99
2019-04-11T05:40:36.403Z,102629.66
2019-04-11T05:43:03.911Z,102629.67
2019-04-11T05:45:31.819Z,102633.77
2019-04-11T05:48:01.019Z,102632.89
2019-04-11T05:50:30.121Z,102631.59
2019-04-11T05:53:02.389Z,102637.58
2019-04-11T05:55:32.129Z,102635.50
2019-04-11T05:58:00.715Z,102640.92
2019-04-11T06:00:38.992Z,102634.88
2019-04-11T06:03:07.831Z,102639.48
2019-04-11T06:05:59.909Z,102641.06
2019-04-11T06:08:29.957Z,102641.16
2019-04-11T06:11:19.154Z,102646.13
2019-04-11T06:13:51.490Z,102648.34
2019-04-11T06:16:18.856Z,102658.94
2019-04-11T06:19:06.020Z,102655.95
2019-04-11T06:21:48.413Z,102658.84
2019-04-11T06:24:41.120Z,102661.82
2019-04-11T06:27:30.813Z,102663.18
2019-04-11T06:30:32.994Z,102667.73
2019-04-11T06:33:13.136Z,102668.00
2019-04-11T06:36:05.511Z,102673.45
2019-04-11T06:38:51.537Z,102672.30
2019-04-11T06:41:50.650Z,102672.03
2019-04-11T06:44:37.679Z,102668.43
2019-04-11T06:47:40.923Z,102662.97
2019-04-11T06:50:27.992Z,102670.13
2019-04-11T06:52:55.532Z,102670.14
2019-04-11T06:55:46.797Z,102670.89
2019-04-11T06:58:25.510Z,102674.53
2019-04-11T07:00:58.307Z,102674.53
2019-04-11T07:03:30.576Z,102674.90
2019-04-11T07:06:00.182Z,102675.25
2019-04-11T07:08:32.101Z,102683.25
2019-04-11T07:11:02.927Z,102681.52
2019-04-11T07:13:45.867Z,102683.63
2019-04-11T07:16:14.065Z,102686.25
2019-04-11T07:18:56.951Z,102691.68
2019-04-11T07:21:29.136Z,102695.73
2019-04-11T07:24:14.461Z,102695.20
2019-04-11T07:27:04.118Z,102695.20
2019-04-11T07:30:05.806Z,102703.02
2019-04-11T07:32:34.265Z,102697.59
2019-04-11T07:35:19.493Z,102697.58
2019-04-11T07:37:49.381Z,102698.22
2019-04-11T07:40:36.356Z,102694.34
2019-04-11T07:43:29.262Z,102694.34
2019-04-11T07:46:25.681Z,102706.45
2019-04-11T07:48:57.420Z,102710.02
2019-04-11T07:51:28.647Z,102702.44
2019-04-11T07:53:57.438Z,102713.34
2019-04-11T07:57:02.158Z,102712.61
2019-04-11T07:59:49.140Z,102710.09
2019-04-11T08:02:39.783Z,102709.93
2019-04-11T08:05:34.448Z,102703.00
2019-04-11T08:08:25.723Z,102703.00
2019-04-11T08:11:09.602Z,102710.11
2019-04-11T08:13:45.001Z,102722.17
2019-04-11T08:16:44.895Z,102708.27
2019-04-11T08:19:51.142Z,102705.64
2019-04-11T08:22:41.319Z,102710.44
2019-04-11T08:25:27.189Z,102712.36
2019-04-11T08:28:01.272Z,102708.87
2019-04-11T08:30:45.354Z,102717.63
2019-04-11T08:33:14.074Z,102716.67
2019-04-11T08:35:59.807Z,102715.63
2019-04-11T08:38:29.136Z,102718.56
2019-04-11T08:41:11.576Z,102724.17
2019-04-11T08:43:39.371Z,102720.12
2019-04-11T08:46:12.928Z,102726.42
2019-04-11T08:48:44.024Z,102728.59
2019-04-11T08:51:11.521Z,102718.25
2019-04-11T08:54:01.539Z,102728.89
2019-04-11T08:56:29.599Z,102725.58
2019-04-11T08:59:35.860Z,102725.58
2019-04-11T09:02:04.645Z,102719.56
2019-04-11T09:04:50.209Z,102718.69
2019-04-11T09:07:19.659Z,102722.34
2019-04-11T09:10:09.591Z,102716.66
2019-04-11T09:12:39.402Z,102716.66
2019-04-11T09:15:32.964Z,102715.39
2019-04-11T09:18:08.982Z,102719.16
2019-04-11T09:20:52.452Z,102715.48
2019-04-11T09:23:21.749Z,102723.42
2019-04-11T09:26:20.803Z,102714.75
2019-04-11T09:28:50.023Z,102720.86
2019-04-11T09:31:39.939Z,102720.23
2019-04-11T09:34:26.027Z,102720.96
2019-04-11T09:37:00.988Z,102720.03
2019-04-11T09:39:48.262Z,102718.20
2019-04-11T09:42:34.586Z,102722.94
2019-04-11T09:45:39.601Z,102714.83
2019-04-11T09:48:42.281Z,102700.83
2019-04-11T09:51:33.914Z,102706.00
2019-04-11T09:54:09.184Z,102708.06
2019-04-11T09:56:56.041Z,102715.39
2019-04-11T09:59:31.978Z,102713.23
2019-04-11T10:02:20.906Z,102714.87
2019-04-11T10:04:48.471Z,102709.83
2019-04-11T10:07:33.689Z,102714.87
2019-04-11T10:10:24.555Z,102713.02
2019-04-11T10:13:10.827Z,102713.45
2019-04-11T10:15:57.743Z,102719.48
2019-04-11T10:18:47.627Z,102709.48
2019-04-11T10:21:15.227Z,102712.73
2019-04-11T10:24:01.006Z,102712.73
2019-04-11T10:26:31.907Z,102716.17
2019-04-11T10:29:19.249Z,102721.35
2019-04-11T10:31:47.628Z,102722.88
2019-04-11T10:34:33.542Z,102722.88
2019-04-11T10:37:04.397Z,102713.55
2019-04-11T10:39:54.563Z,102714.17
2019-04-11T10:42:26.687Z,102714.31
2019-04-11T10:45:23.060Z,102702.36
2019-04-11T10:47:52.069Z,102716.79
2019-04-11T10:50:49.303Z,102703.97
2019-04-11T10:53:17.997Z,102717.73
2019-04-11T10:56:08.495Z,102716.96
2019-04-11T10:58:43.407Z,102709.58
2019-04-11T11:01:33.796Z,102712.64
2019-04-11T11:04:09.522Z,102714.37
2019-04-11T11:06:37.921Z,102714.25
2019-04-11T11:09:26.192Z,102715.20
2019-04-11T11:12:06.384Z,102712.13
2019-04-11T11:15:07.108Z,102712.13
2019-04-11T11:18:35.724Z,102716.22
2019-04-11T11:21:11.309Z,102722.28
2019-04-11T11:23:58.791Z,102721.55
2019-04-11T11:26:44.158Z,102725.50
2019-04-11T11:29:31.971Z,102719.84
2019-04-11T11:32:05.262Z,102715.73
2019-04-11T11:34:42.591Z,102722.33
2019-04-11T11:37:29.025Z,102715.78
2019-04-11T11:40:18.813Z,102715.78
2019-04-11T11:43:04.359Z,102718.69
2019-04-11T11:45:57.163Z,102718.69
2019-04-11T11:48:46.378Z,102735.03
2019-04-11T11:51:17.293Z,102740.86
2019-04-11T11:53:53.218Z,102740.86
2019-04-11T11:56:20.676Z,102733.59
2019-04-11T11:59:06.913Z,102740.45
2019-04-11T12:01:38.907Z,102730.56
2019-04-11T12:04:39.329Z,102730.41
2019-04-11T12:07:08.792Z,102732.91
2019-04-11T12:09:55.058Z,102736.13
2019-04-11T12:12:28.150Z,102732.32
2019-04-11T12:15:17.257Z,102719.48
2019-04-11T12:18:18.093Z,102729.02
2019-04-11T12:20:49.371Z,102726.70
2019-04-11T12:23:42.814Z,102728.19
2019-04-11T12:26:01.195Z,102728.19
2019-04-11T12:29:00.195Z,102720.59
2019-04-11T12:31:28.720Z,102720.59
2019-04-11T12:34:16.393Z,102733.09
2019-04-11T12:36:50.122Z,102733.44
2019-04-11T12:39:31.844Z,102740.41
2019-04-11T12:42:19.719Z,102740.41
2019-04-11T12:45:06.435Z,102741.23
2019-04-11T12:47:47.131Z,102741.33
2019-04-11T12:50:32.845Z,102735.92
2019-04-11T12:53:18.708Z,102735.92
2019-04-11T12:56:04.417Z,102727.69
2019-04-11T12:58:51.234Z,102741.30
2019-04-11T13:01:36.501Z,102729.98
2019-04-11T13:04:23.440Z,102731.43
2019-04-11T13:07:09.351Z,102736.95
2019-04-11T13:09:40.164Z,102730.14
2019-04-11T13:12:08.881Z,102728.14
2019-04-11T13:14:58.504Z,102718.72
2019-04-11T13:17:29.937Z,102718.72
2019-04-11T13:20:16.736Z,102720.92
2019-04-11T13:22:44.101Z,102723.30
2019-04-11T13:25:45.443Z,102715.75
2019-04-11T13:28:12.242Z,102712.88
2019-04-11T13:31:07.691Z,102727.33
2019-04-11T13:33:34.971Z,102716.72
2019-04-11T13:36:20.332Z,102704.16
2019-04-11T13:38:51.487Z,102701.26
2019-04-11T13:41:43.867Z,102701.26
2019-04-11T13:44:13.852Z,102704.62
2019-04-11T13:47:12.850Z,102715.73
2019-04-11T13:50:03.934Z,102709.91
2019-04-11T13:52:50.216Z,102708.31
2019-04-11T13:55:20.093Z,102717.78
2019-04-11T13:58:06.906Z,102700.29
2019-04-11T14:00:53.298Z,102704.31
2019-04-11T14:03:49.311Z,102703.71
2019-04-11T14:06:28.841Z,102692.27
2019-04-11T14:09:15.711Z,102691.76
2019-04-11T14:11:46.216Z,102701.77
2019-04-11T14:14:19.241Z,102702.27
2019-04-11T14:17:17.905Z,102700.09
2019-04-11T14:20:28.294Z,102698.59
2019-04-11T14:23:08.431Z,102702.27
2019-04-11T14:25:55.414Z,102702.27
2019-04-11T14:28:26.065Z,102697.08
2019-04-11T14:31:11.753Z,102692.31
2019-04-11T14:33:41.299Z,102698.24
2019-04-11T14:36:33.234Z,102685.88
2019-04-11T14:38:55.735Z,102685.88
2019-04-11T14:41:41.697Z,102694.73
2019-04-11T14:44:09.569Z,102687.27
2019-04-11T14:47:06.866Z,102695.69
2019-04-11T14:49:35.045Z,102698.44
2019-04-11T14:52:17.259Z,102692.42
2019-04-11T14:54:49.976Z,102689.88
2019-04-11T14:57:30.567Z,102694.27
2019-04-11T15:00:02.699Z,102687.23
2019-04-11T15:03:04.684Z,102687.23
2019-04-11T15:05:44.791Z,102688.47
2019-04-11T15:08:14.960Z,102681.80
2019-04-11T15:11:18.467Z,102685.38
2019-04-11T15:13:47.773Z,102708.50
2019-04-11T15:16:40.741Z,102691.59
2019-04-11T15:19:08.012Z,102686.22
2019-04-11T15:21:53.476Z,102686.28
2019-04-11T15:24:21.369Z,102675.94
2019-04-11T15:27:08.747Z,102682.62
2019-04-11T15:29:37.892Z,102688.89
2019-04-11T15:32:36.803Z,102685.03
2019-04-11T15:35:10.387Z,102685.72
2019-04-11T15:37:55.550Z,102696.67
2019-04-11T15:40:44.263Z,102692.91
2019-04-11T15:43:43.397Z,102693.14
2019-04-11T15:46:14.713Z,102691.89
2019-04-11T15:49:01.498Z,102697.91
2019-04-11T15:51:35.132Z,102696.91
2019-04-11T15:54:22.336Z,102697.87
2019-04-11T15:57:12.306Z,102697.87
2019-04-11T15:59:58.024Z,102713.03
2019-04-11T16:02:40.921Z,102678.91
2019-04-11T16:05:46.207Z,102695.53
2019-04-11T16:08:17.529Z,102700.03
2019-04-11T16:10:53.810Z,102702.53
2019-04-11T16:13:41.022Z,102702.53
2019-04-11T16:16:11.981Z,102705.16
2019-04-11T16:19:03.062Z,102708.83
2019-04-11T16:21:48.550Z,102708.96
2019-04-11T16:24:27.346Z,102709.28
2019-04-11T16:27:11.625Z,102707.39
2019-04-11T16:29:46.303Z,102700.17
2019-04-11T16:32:13.872Z,102709.83
2019-04-11T16:34:51.595Z,102706.23
2019-04-11T16:37:18.553Z,102706.81
2019-04-11T16:40:08.381Z,102710.06
2019-04-11T16:42:43.714Z,102718.17
2019-04-11T16:45:33.179Z,102712.67
2019-04-11T16:48:03.394Z,102717.19
2019-04-11T16:50:31.311Z,102695.92
2019-04-11T16:52:59.053Z,102706.94
2019-04-11T16:55:26.417Z,102706.48
2019-04-11T16:57:56.416Z,102710.91
2019-04-11T17:00:24.003Z,102713.17
2019-04-11T17:02:54.796Z,102720.03
2019-04-11T17:05:20.695Z,102721.29
2019-04-11T17:08:06.359Z,102718.22
2019-04-11T17:10:52.047Z,102718.22
2019-04-11T17:13:19.568Z,102716.91
2019-04-11T17:15:46.820Z,102727.99
2019-04-11T17:18:14.051Z,102732.11
2019-04-11T17:20:41.353Z,102722.72
2019-04-11T17:23:08.629Z,102722.72
2019-04-11T17:25:35.856Z,102735.80
2019-04-11T17:28:03.164Z,102725.88
2019-04-11T17:30:30.428Z,102730.40
2019-04-11T17:32:57.715Z,102727.74
2019-04-11T17:35:25.002Z,102737.53
2019-04-11T17:37:52.242Z,102737.53
2019-04-11T17:40:19.513Z,102748.61
2019-04-11T17:42:46.784Z,102735.77
2019-04-11T17:45:14.086Z,102741.30
2019-04-11T17:47:41.358Z,102733.89
2019-04-11T17:50:08.801Z,102742.88
2019-04-11T17:52:36.052Z,102735.57
2019-04-11T17:55:03.666Z,102737.95
2019-04-11T17:57:30.932Z,102751.33
2019-04-11T17:59:59.130Z,102749.72
2019-04-11T18:02:27.095Z,102751.03
2019-04-11T18:04:54.507Z,102750.83
2019-04-11T18:07:21.727Z,102756.80
2019-04-11T18:09:49.016Z,102756.97
2019-04-11T18:12:16.356Z,102756.43
2019-04-11T18:14:43.786Z,102755.26
2019-04-11T18:17:11.513Z,102760.12
2019-04-11T18:19:38.831Z,102760.36
2019-04-11T18:22:08.005Z,102764.92
2019-04-11T18:24:35.560Z,102764.14
2019-04-11T18:27:03.109Z,102761.70
2019-04-11T18:29:30.346Z,102764.98
2019-04-11T18:31:57.603Z,102766.34
2019-04-11T18:34:24.887Z,102775.25
2019-04-11T18:36:52.400Z,102774.20
2019-04-11T18:39:19.654Z,102778.30
2019-04-11T18:41:46.947Z,102782.55
2019-04-11T18:44:18.033Z,102778.59
2019-04-11T18:46:44.572Z,102773.20
2019-04-11T18:49:11.827Z,102793.00
2019-04-11T18:51:39.138Z,102795.84
2019-04-11T18:54:07.760Z,102784.98
2019-04-11T18:56:37.832Z,102784.98
2019-04-11T18:59:04.784Z,102789.53
2019-04-11T19:01:32.012Z,102794.09
2019-04-11T19:03:59.305Z,102786.87
2019-04-11T19:06:28.157Z,102786.87
2019-04-11T19:08:55.641Z,102822.13
2019-04-11T19:11:22.901Z,102809.05
2019-04-11T19:13:50.181Z,102806.83
2019-04-11T19:16:17.451Z,102804.86
2019-04-11T19:18:47.691Z,102807.48
2019-04-11T19:21:13.943Z,102810.98
2019-04-11T19:23:41.195Z,102819.03
2019-04-11T19:26:08.427Z,102814.78
2019-04-11T19:28:35.692Z,102820.13
2019-04-11T19:31:03.024Z,102822.25
2019-04-11T19:33:34.077Z,102814.53
2019-04-11T19:36:00.411Z,102810.88
2019-04-11T19:38:32.523Z,102815.76
2019-04-11T19:40:59.764Z,102826.08
2019-04-11T19:43:27.058Z,102823.02
2019-04-11T19:45:54.290Z,102822.67
2019-04-11T19:48:22.673Z,102818.66
2019-04-11T19:50:50.850Z,102821.25
2019-04-11T19:53:18.101Z,102816.77
2019-04-11T19:56:13.970Z,102817.53
2019-04-11T19:58:44.136Z,102828.69
2019-04-11T20:01:11.394Z,102831.30
2019-04-11T20:03:38.788Z,102830.22
2019-04-11T20:06:06.027Z,102830.22
2019-04-11T20:08:33.312Z,102827.39
2019-04-11T20:11:01.366Z,102824.78
2019-04-11T20:13:32.031Z,102826.84
2019-04-11T20:15:58.460Z,102825.25
2019-04-11T20:18:25.721Z,102831.73
2019-04-11T20:20:52.972Z,102828.27
2019-04-11T20:23:20.230Z,102833.12
2019-04-11T20:25:49.674Z,102830.87
2019-04-11T20:28:19.828Z,102828.67
2019-04-11T20:30:45.818Z,102829.87
2019-04-11T20:33:13.054Z,102828.52
2019-04-11T20:35:40.681Z,102824.37
2019-04-11T20:38:08.097Z,102822.12
2019-04-11T20:40:35.395Z,102821.89
2019-04-11T20:43:02.654Z,102826.34
2019-04-11T20:45:31.904Z,102826.34
2019-04-11T20:48:00.292Z,102825.25
2019-04-11T20:50:28.295Z,102827.89
2019-04-11T20:52:55.726Z,102816.57
2019-04-11T20:55:22.970Z,102817.84
2019-04-11T20:57:50.193Z,102812.52
2019-04-11T21:00:17.662Z,102815.11
2019-04-11T21:02:44.932Z,102816.17
2019-04-11T21:05:12.152Z,102822.20
2019-04-11T21:07:39.379Z,102812.91
2019-04-11T21:10:06.807Z,102815.68
2019-04-11T21:12:37.077Z,102817.49
2019-04-11T21:15:03.589Z,102819.81
2019-04-11T21:17:30.855Z,102818.53
2019-04-11T21:19:58.219Z,102827.14
2019-04-11T21:22:25.459Z,102821.91
2019-04-11T21:24:52.704Z,102824.14
2019-04-11T21:27:19.955Z,102821.40
2019-04-11T21:29:47.208Z,102831.84
2019-04-11T21:32:14.523Z,102827.24
2019-04-11T21:34:41.787Z,102826.36
2019-04-11T21:37:09.024Z,102828.32
2019-04-11T21:39:36.274Z,102830.93
2019-04-11T21:42:05.909Z,102833.44
2019-04-11T21:44:35.965Z,102836.04
2019-04-11T21:47:02.020Z,102829.21
2019-04-11T21:49:29.366Z,102833.45
2019-04-11T21:51:56.687Z,102832.92
2019-04-11T21:54:23.938Z,102831.61
2019-04-11T21:56:51.227Z,102824.77
2019-04-11T21:59:20.385Z,102825.34
2019-04-11T22:01:47.811Z,102828.88
2019-04-11T22:04:15.169Z,102830.83
2019-04-11T22:06:42.420Z,102830.55
2019-04-11T22:09:09.909Z,102820.62
2019-04-11T22:11:38.348Z,102823.72
2019-04-11T22:14:06.286Z,102825.67
2019-04-11T22:16:33.525Z,102831.17
2019-04-11T22:19:03.308Z,102826.52
2019-04-11T22:21:30.621Z,102823.08
2019-04-11T22:23:57.857Z,102826.77
2019-04-11T22:26:25.129Z,102828.48
2019-04-11T22:28:54.936Z,102829.92
2019-04-11T22:31:24.715Z,102830.83
2019-04-11T22:34:05.216Z,102827.02
2019-04-11T22:36:32.463Z,102830.06
2019-04-11T22:39:01.069Z,102824.86
2019-04-11T22:41:28.920Z,102823.53
2019-04-11T22:43:56.191Z,102832.67
2019-04-11T22:46:23.418Z,102828.36
2019-04-11T22:48:50.696Z,102830.73
2019-04-11T22:51:18.047Z,102833.84
2019-04-11T22:53:45.249Z,102834.51
2019-04-11T22:56:12.569Z,102824.86
2019-04-11T22:58:39.815Z,102826.66
2019-04-11T23:01:07.144Z,102832.27
2019-04-11T23:03:56.141Z,102838.41
2019-04-11T23:06:23.390Z,102840.52
2019-04-11T23:08:51.207Z,102841.02
2019-04-11T23:11:18.484Z,102836.05
2019-04-11T23:13:46.319Z,102845.34
2019-04-11T23:16:14.436Z,102837.88
2019-04-11T23:18:44.142Z,102833.16
2019-04-11T23:21:14.112Z,102841.52
2019-04-11T23:23:40.923Z,102833.50
2019-04-11T23:26:08.145Z,102835.75
2019-04-11T23:28:35.358Z,102827.87
2019-04-11T23:31:02.611Z,102832.81
2019-04-11T23:33:29.864Z,102828.15
2019-04-11T23:35:57.086Z,102826.61
2019-04-11T23:38:24.607Z,102835.45
2019-04-11T23:40:51.927Z,102842.55
2019-04-11T23:43:20.153Z,102832.90
2019-04-11T23:45:50.919Z,102842.16
2019-04-11T23:48:17.130Z,102838.64
2019-04-11T23:50:44.456Z,102835.69
2019-04-11T23:53:11.855Z,102847.80
2019-04-11T23:55:39.087Z,102848.77
2019-04-11T23:58:06.323Z,102843.77
